Time;durP1;ratioP1;P1;durP2;ratioP2;P2;SDS_P1;SDS_P2;PMS_P1;PMS_P2;Temp;Humidity;BMP_temperature;BMP_pressure;BME280_temperature;BME280_humidity;BME280_pressure;Samples;Min_cycle;Max_cycle;Signal;HPM_P1;HPM_P2
2023/06/23 00:01:03;;;;;;;10.03;6.40;;;27.80;60.10;;;;;;5052615;28;20925;-69
2023/06/23 00:03:30;;;;;;;10.40;6.10;;;27.80;60.30;;;;;;5053318;28;20174;-69
2023/06/23 00:05:56;;;;;;;8.83;6.00;;;27.80;60.00;;;;;;5053276;28;20195;-69
2023/06/23 00:08:22;;;;;;;7.47;5.23;;;27.80;60.20;;;;;;5051535;28;20790;-69
2023/06/23 00:10:48;;;;;;;9.30;5.60;;;27.80;60.20;;;;;;5053026;28;20458;-69
2023/06/23 00:13:13;;;;;;;9.40;5.33;;;27.90;60.20;;;;;;5051481;28;20178;-69
2023/06/23 00:15:39;;;;;;;7.53;5.30;;;27.90;60.00;;;;;;5052699;28;20198;-69
2023/06/23 00:18:05;;;;;;;10.93;6.00;;;27.80;60.90;;;;;;5053136;28;20171;-69
2023/06/23 00:20:31;;;;;;;9.33;5.90;;;27.90;60.20;;;;;;5053341;28;20206;-69
2023/06/23 00:22:56;;;;;;;12.20;6.20;;;27.80;60.20;;;;;;5053136;28;20164;-69
2023/06/23 00:25:23;;;;;;;7.83;5.83;;;27.90;60.20;;;;;;5052492;28;20214;-69
2023/06/23 00:27:49;;;;;;;5.73;4.40;;;27.80;60.00;;;;;;5052374;28;20171;-69
2023/06/23 00:30:14;;;;;;;7.80;4.60;;;27.90;60.20;;;;;;5052717;28;20416;-69
2023/06/23 00:32:41;;;;;;;5.33;4.67;;;27.80;59.90;;;;;;5052412;28;20444;-69
2023/06/23 00:35:08;;;;;;;5.13;4.10;;;27.90;59.90;;;;;;5052405;28;20198;-69
2023/06/23 00:37:37;;;;;;;6.93;4.27;;;27.90;59.90;;;;;;5052641;28;20511;-69
2023/06/23 00:40:04;;;;;;;4.70;4.30;;;27.80;59.60;;;;;;5052595;28;20929;-69
2023/06/23 00:42:31;;;;;;;4.53;3.97;;;27.80;59.60;;;;;;5051136;28;20436;-68
2023/06/23 00:44:57;;;;;;;5.40;3.57;;;27.80;59.60;;;;;;5052494;28;20472;-69
2023/06/23 00:47:24;;;;;;;3.60;2.93;;;27.80;59.50;;;;;;5052711;28;20445;-69
2023/06/23 00:49:50;;;;;;;4.57;3.60;;;27.80;59.40;;;;;;5052226;28;20667;-69
2023/06/23 00:52:16;;;;;;;4.80;3.13;;;27.80;59.40;;;;;;5052549;28;20428;-69
2023/06/23 00:54:42;;;;;;;5.20;2.77;;;27.80;59.20;;;;;;5052168;28;20581;-69
2023/06/23 00:57:10;;;;;;;8.40;3.30;;;27.80;59.30;;;;;;5052340;28;20978;-69
2023/06/23 00:59:36;;;;;;;2.83;2.57;;;27.80;59.30;;;;;;5052603;28;20402;-69
2023/06/23 01:02:02;;;;;;;4.30;2.67;;;27.80;59.20;;;;;;5052523;28;20412;-69
2023/06/23 01:04:33;;;;;;;7.70;3.63;;;27.80;59.20;;;;;;5052275;28;20167;-69
2023/06/23 01:07:21;;;;;;;2.53;2.33;;;27.80;59.20;;;;;;5055030;28;20433;-69
2023/06/23 01:10:07;;;;;;;3.83;2.53;;;27.80;59.00;;;;;;5055576;28;20405;-69
2023/06/23 01:12:46;;;;;;;3.00;2.20;;;27.80;59.10;;;;;;5055635;28;20397;-69
2023/06/23 01:15:21;;;;;;;2.30;2.10;;;27.80;59.10;;;;;;5055578;28;20459;-69
2023/06/23 01:18:01;;;;;;;6.33;3.00;;;27.80;59.10;;;;;;5056390;28;20441;-68
2023/06/23 01:20:30;;;;;;;2.47;2.00;;;27.70;59.00;;;;;;5055780;28;20436;-69
2023/06/23 01:23:13;;;;;;;4.40;2.50;;;27.70;59.00;;;;;;5055498;28;20402;-69
2023/06/23 01:26:09;;;;;;;3.40;2.20;;;27.70;58.90;;;;;;5055442;28;20432;-69
2023/06/23 01:28:41;;;;;;;3.20;2.90;;;27.70;58.90;;;;;;5055546;28;20382;-69
2023/06/23 01:31:13;;;;;;;3.17;2.00;;;27.70;58.80;;;;;;5054288;28;20981;-69
2023/06/23 01:33:48;;;;;;;3.27;1.70;;;27.60;58.80;;;;;;5055516;28;20390;-69
2023/06/23 01:36:20;;;;;;;3.23;1.90;;;27.60;58.70;;;;;;5055492;28;20459;-69
2023/06/23 01:38:50;;;;;;;5.40;2.10;;;27.60;58.70;;;;;;5055269;28;20401;-69
2023/06/23 01:41:26;;;;;;;2.00;1.60;;;27.60;58.70;;;;;;5055436;28;20755;-69
2023/06/23 01:43:55;;;;;;;4.00;1.60;;;27.60;58.60;;;;;;5055641;28;20453;-68
2023/06/23 01:46:25;;;;;;;4.10;1.70;;;27.60;58.60;;;;;;5054960;28;20529;-69
2023/06/23 01:48:59;;;;;;;10.20;2.10;;;27.60;58.60;;;;;;5055542;28;20405;-69
2023/06/23 01:51:26;;;;;;;2.60;1.67;;;27.60;58.60;;;;;;5054996;28;20448;-69
2023/06/23 01:53:54;;;;;;;6.73;1.87;;;27.60;58.80;;;;;;5055436;28;20410;-68
2023/06/23 01:56:21;;;;;;;3.13;1.60;;;27.60;58.60;;;;;;5054651;28;20511;-69
2023/06/23 01:58:48;;;;;;;3.80;1.63;;;27.60;58.60;;;;;;5054949;28;20809;-69
2023/06/23 02:01:15;;;;;;;2.10;1.63;;;27.60;58.60;;;;;;5054820;28;20954;-69
2023/06/23 02:03:41;;;;;;;3.10;1.40;;;27.60;58.50;;;;;;5054820;28;20918;-69
2023/06/23 02:06:08;;;;;;;2.37;1.40;;;27.60;58.50;;;;;;5054697;28;20429;-69
2023/06/23 02:08:35;;;;;;;3.50;1.80;;;27.60;58.50;;;;;;5054728;28;20413;-69
2023/06/23 02:11:02;;;;;;;3.33;1.43;;;27.60;58.50;;;;;;5054879;28;20416;-69
2023/06/23 02:13:30;;;;;;;1.67;1.40;;;27.50;58.50;;;;;;5054854;28;20447;-69
2023/06/23 02:15:58;;;;;;;1.80;1.53;;;27.50;58.40;;;;;;5054171;28;20461;-69
2023/06/23 02:18:26;;;;;;;2.67;2.07;;;27.60;58.50;;;;;;5054289;28;20434;-69
2023/06/23 02:20:54;;;;;;;2.63;1.60;;;27.60;58.50;;;;;;5054773;28;20433;-69
2023/06/23 02:23:21;;;;;;;2.63;1.57;;;27.50;58.40;;;;;;5054482;28;20496;-69
2023/06/23 02:25:48;;;;;;;2.77;1.60;;;27.50;58.30;;;;;;5054412;28;20457;-69
2023/06/23 02:28:14;;;;;;;1.50;1.30;;;27.50;58.30;;;;;;5054164;28;20409;-69
2023/06/23 02:30:41;;;;;;;4.33;1.70;;;27.50;58.30;;;;;;5054622;28;20413;-69
2023/06/23 02:33:06;;;;;;;6.90;1.67;;;27.50;58.30;;;;;;5054275;28;20424;-69
2023/06/23 02:35:33;;;;;;;2.20;1.73;;;27.50;58.20;;;;;;5053186;28;20516;-69
2023/06/23 02:38:07;;;;;;;3.30;1.43;;;27.50;58.20;;;;;;5054196;28;20244;-69
2023/06/23 02:40:36;;;;;;;1.73;1.57;;;27.50;58.20;;;;;;5054083;28;20389;-69
2023/06/23 02:43:17;;;;;;;1.40;1.23;;;27.50;58.20;;;;;;5054037;28;20762;-69
2023/06/23 02:45:47;;;;;;;1.70;1.60;;;27.50;58.20;;;;;;5053827;28;20825;-69
2023/06/23 02:48:20;;;;;;;1.60;1.40;;;27.40;58.10;;;;;;5053895;28;20445;-69
2023/06/23 02:50:48;;;;;;;3.83;1.47;;;27.40;58.10;;;;;;5053669;28;20436;-69
2023/06/23 02:53:20;;;;;;;2.57;1.40;;;27.40;58.10;;;;;;5052788;28;20787;-69
2023/06/23 02:55:47;;;;;;;2.23;1.30;;;27.40;58.00;;;;;;5053734;28;20915;-69
2023/06/23 02:58:16;;;;;;;2.90;1.60;;;27.40;58.00;;;;;;5053748;28;20410;-69
2023/06/23 03:00:43;;;;;;;1.60;1.33;;;27.40;57.90;;;;;;5053760;28;20432;-69
2023/06/23 03:03:14;;;;;;;2.97;1.37;;;27.40;57.90;;;;;;5053721;28;20417;-69
2023/06/23 03:05:40;;;;;;;3.20;2.70;;;27.40;57.90;;;;;;5053709;28;20429;-69
2023/06/23 03:08:06;;;;;;;2.00;1.70;;;27.30;57.70;;;;;;5053952;28;20425;-69
2023/06/23 03:10:33;;;;;;;1.83;1.60;;;27.30;57.70;;;;;;5053776;28;20183;-69
2023/06/23 03:13:02;;;;;;;1.90;1.60;;;27.30;57.60;;;;;;5053925;28;20417;-69
2023/06/23 03:15:29;;;;;;;1.87;1.70;;;27.30;57.50;;;;;;5053513;28;20433;-69
2023/06/23 03:18:03;;;;;;;4.40;1.90;;;27.30;57.40;;;;;;5053664;28;20499;-69
2023/06/23 03:20:41;;;;;;;2.10;1.90;;;27.20;57.20;;;;;;5053393;28;20390;-69
2023/06/23 03:23:13;;;;;;;3.97;2.47;;;27.30;57.20;;;;;;5053603;28;20907;-69
2023/06/23 03:25:41;;;;;;;4.10;3.10;;;27.20;57.00;;;;;;5053580;28;20459;-69
2023/06/23 03:28:09;;;;;;;3.30;3.00;;;27.20;56.80;;;;;;5051375;28;20418;-68
2023/06/23 03:30:40;;;;;;;4.00;2.70;;;27.10;56.60;;;;;;5053300;28;20484;-69
2023/06/23 03:33:24;;;;;;;2.97;2.53;;;27.10;56.50;;;;;;5053168;28;20485;-69
2023/06/23 03:35:52;;;;;;;2.90;2.40;;;27.10;56.30;;;;;;5053385;28;20437;-69
2023/06/23 03:38:21;;;;;;;3.47;2.90;;;27.10;56.40;;;;;;5053131;28;20448;-69
2023/06/23 03:41:02;;;;;;;3.00;2.63;;;27.10;56.20;;;;;;5053239;28;20401;-69
2023/06/23 03:43:32;;;;;;;4.67;3.57;;;27.10;56.20;;;;;;5053070;28;20402;-69
2023/06/23 03:46:08;;;;;;;3.57;2.93;;;27.00;56.10;;;;;;5051687;28;20457;-69
2023/06/23 03:48:38;;;;;;;3.20;2.90;;;27.00;56.10;;;;;;5051867;28;20460;-69
2023/06/23 03:51:05;;;;;;;3.20;2.90;;;27.00;55.80;;;;;;5052806;28;20445;-69
2023/06/23 03:53:32;;;;;;;3.47;2.83;;;26.90;55.70;;;;;;5051798;28;20425;-69
2023/06/23 03:56:00;;;;;;;3.77;3.27;;;27.00;55.60;;;;;;5052769;28;20425;-69
2023/06/23 03:58:27;;;;;;;3.90;3.03;;;26.90;55.50;;;;;;5052890;28;20402;-69
2023/06/23 04:00:55;;;;;;;3.53;3.00;;;26.90;55.30;;;;;;5052880;28;20405;-69
2023/06/23 04:03:23;;;;;;;5.10;3.60;;;26.90;55.20;;;;;;5052566;28;20823;-68
2023/06/23 04:05:49;;;;;;;3.43;2.67;;;26.90;55.10;;;;;;5053018;28;20433;-69
2023/06/23 04:08:17;;;;;;;3.60;3.30;;;26.90;55.00;;;;;;5052735;28;20397;-69
2023/06/23 04:10:46;;;;;;;3.50;3.20;;;26.90;54.80;;;;;;5051470;28;20409;-69
2023/06/23 04:13:13;;;;;;;2.60;2.40;;;26.80;54.60;;;;;;5053048;28;20405;-70
2023/06/23 04:15:40;;;;;;;3.40;3.10;;;26.80;54.60;;;;;;5052999;28;20429;-69
2023/06/23 04:18:08;;;;;;;2.67;2.47;;;26.80;54.60;;;;;;5052522;28;20461;-69
2023/06/23 04:20:36;;;;;;;3.40;2.80;;;26.80;54.60;;;;;;5052743;28;20433;-69
2023/06/23 04:23:05;;;;;;;3.10;2.53;;;26.70;54.50;;;;;;5052877;28;20481;-69
2023/06/23 04:25:31;;;;;;;3.43;3.13;;;26.80;54.50;;;;;;5051784;28;20479;-70
2023/06/23 04:28:00;;;;;;;3.40;3.10;;;26.70;54.50;;;;;;5052524;28;20530;-69
2023/06/23 04:30:29;;;;;;;4.40;3.33;;;26.70;54.60;;;;;;5052120;28;20406;-68
2023/06/23 04:32:55;;;;;;;4.70;3.03;;;26.70;54.50;;;;;;5052327;28;20417;-69
2023/06/23 04:35:20;;;;;;;4.20;3.20;;;26.70;54.40;;;;;;5052651;28;20910;-69
2023/06/23 04:37:58;;;;;;;4.57;3.33;;;26.70;54.40;;;;;;5052330;28;20195;-69
2023/06/23 04:40:34;;;;;;;9.03;3.37;;;26.70;54.40;;;;;;5053211;28;20209;-69
2023/06/23 04:43:12;;;;;;;3.50;3.20;;;26.70;54.40;;;;;;5056340;28;20476;-69
2023/06/23 04:45:44;;;;;;;4.37;3.97;;;26.70;54.40;;;;;;5056794;28;20760;-69
2023/06/23 04:48:12;;;;;;;3.40;2.83;;;26.70;54.40;;;;;;5056202;28;20397;-69
2023/06/23 04:50:40;;;;;;;3.77;3.30;;;26.70;54.40;;;;;;5056055;28;20436;-69
2023/06/23 04:53:21;;;;;;;4.83;3.33;;;26.70;54.50;;;;;;5055960;28;20409;-69
2023/06/23 04:55:55;;;;;;;4.00;3.60;;;26.70;54.50;;;;;;5055561;28;20432;-69
2023/06/23 04:58:22;;;;;;;4.23;3.83;;;26.70;54.50;;;;;;5056422;28;20386;-69
2023/06/23 05:00:50;;;;;;;4.10;3.30;;;26.70;54.50;;;;;;5056005;28;20413;-69
2023/06/23 05:03:17;;;;;;;4.00;3.03;;;26.70;54.50;;;;;;5055859;28;20409;-68
2023/06/23 05:05:45;;;;;;;3.60;3.30;;;26.70;54.60;;;;;;5055796;28;20921;-70
2023/06/23 05:08:12;;;;;;;4.30;3.80;;;26.70;54.50;;;;;;5054925;28;20437;-68
2023/06/23 05:10:40;;;;;;;5.07;4.00;;;26.70;54.50;;;;;;5054792;28;20484;-68
2023/06/23 05:13:07;;;;;;;4.17;3.53;;;26.70;54.60;;;;;;5053785;28;20413;-68
2023/06/23 05:15:33;;;;;;;3.63;3.30;;;26.70;54.60;;;;;;5054579;28;20433;-69
2023/06/23 05:18:00;;;;;;;4.20;3.80;;;26.70;54.60;;;;;;5054609;28;20563;-69
2023/06/23 05:20:30;;;;;;;4.30;3.90;;;26.80;54.60;;;;;;5054633;28;20305;-68
2023/06/23 05:22:57;;;;;;;3.80;3.50;;;26.80;54.60;;;;;;5054875;28;20413;-69
2023/06/23 05:25:29;;;;;;;5.17;3.80;;;26.80;54.60;;;;;;5054497;28;20508;-69
2023/06/23 05:28:00;;;;;;;3.77;3.47;;;26.80;54.60;;;;;;5054555;28;20459;-68
2023/06/23 05:30:28;;;;;;;5.20;3.30;;;26.80;54.50;;;;;;5053220;28;20401;-68
2023/06/23 05:32:56;;;;;;;4.63;3.20;;;26.80;54.50;;;;;;5054370;28;20496;-69
2023/06/23 05:35:23;;;;;;;4.83;3.43;;;26.80;54.50;;;;;;5054260;28;20429;-69
2023/06/23 05:37:50;;;;;;;3.80;3.50;;;26.80;54.50;;;;;;5054263;28;20535;-69
2023/06/23 05:40:16;;;;;;;3.90;3.50;;;26.80;54.40;;;;;;5054273;28;20440;-69
2023/06/23 05:42:42;;;;;;;4.10;3.70;;;26.80;54.40;;;;;;5054153;28;20437;-68
2023/06/23 05:45:09;;;;;;;4.60;3.50;;;26.80;54.30;;;;;;5054050;28;20210;-69
2023/06/23 05:47:46;;;;;;;4.77;3.70;;;26.90;54.30;;;;;;5054186;28;20413;-69
2023/06/23 05:50:19;;;;;;;4.73;3.50;;;26.90;54.20;;;;;;5054471;28;20486;-68
2023/06/23 05:52:56;;;;;;;5.50;3.50;;;26.90;54.20;;;;;;5053888;28;20440;-69
2023/06/23 05:55:24;;;;;;;6.50;3.90;;;26.80;54.00;;;;;;5054490;28;20447;-69
2023/06/23 05:57:59;;;;;;;4.63;3.53;;;26.80;54.00;;;;;;5053870;28;20450;-68
2023/06/23 06:00:28;;;;;;;6.43;3.30;;;26.90;54.10;;;;;;5054105;28;20386;-69
2023/06/23 06:02:56;;;;;;;3.80;3.43;;;26.80;53.90;;;;;;5054163;28;20437;-69
2023/06/23 06:05:23;;;;;;;5.47;4.23;;;26.90;54.00;;;;;;5053894;28;20527;-69
2023/06/23 06:07:50;;;;;;;3.57;3.27;;;26.90;54.10;;;;;;5053901;28;20406;-69
2023/06/23 06:10:18;;;;;;;4.63;2.90;;;26.80;53.90;;;;;;5053762;28;20440;-69
2023/06/23 06:12:45;;;;;;;3.43;3.00;;;26.90;53.90;;;;;;5053659;28;20440;-69
2023/06/23 06:15:12;;;;;;;5.00;3.43;;;26.90;54.00;;;;;;5053531;28;20432;-68
2023/06/23 06:17:40;;;;;;;3.77;2.87;;;26.90;54.00;;;;;;5052266;28;20503;-69
2023/06/23 06:20:08;;;;;;;3.60;3.23;;;26.90;53.90;;;;;;5053963;28;20402;-69
2023/06/23 06:22:37;;;;;;;4.20;3.80;;;26.80;53.80;;;;;;5052257;28;20504;-68
2023/06/23 06:25:04;;;;;;;3.70;3.00;;;26.90;53.90;;;;;;5053399;28;20436;-69
2023/06/23 06:27:32;;;;;;;5.33;3.70;;;26.80;53.70;;;;;;5053502;28;20440;-69
2023/06/23 06:29:59;;;;;;;4.57;3.70;;;26.90;53.70;;;;;;5053729;28;20467;-69
2023/06/23 06:32:29;;;;;;;3.70;3.17;;;26.90;53.60;;;;;;5053354;28;20421;-69
2023/06/23 06:34:56;;;;;;;3.73;3.30;;;26.80;53.50;;;;;;5053159;28;20406;-68
2023/06/23 06:37:25;;;;;;;3.53;3.20;;;26.80;53.50;;;;;;5053131;28;20449;-68
2023/06/23 06:39:51;;;;;;;3.87;3.00;;;26.80;53.50;;;;;;5053168;28;20402;-68
2023/06/23 06:42:17;;;;;;;3.47;3.17;;;26.80;53.50;;;;;;5053042;28;20464;-68
2023/06/23 06:44:43;;;;;;;3.50;3.20;;;26.80;53.40;;;;;;5052967;28;20789;-69
2023/06/23 06:47:11;;;;;;;3.20;2.90;;;26.80;53.50;;;;;;5053054;28;20418;-68
2023/06/23 06:49:39;;;;;;;3.53;3.23;;;26.80;53.50;;;;;;5053020;28;20606;-69
2023/06/23 06:52:06;;;;;;;3.70;3.40;;;26.80;53.50;;;;;;5052964;28;20398;-69
2023/06/23 06:54:33;;;;;;;3.40;3.10;;;26.80;53.60;;;;;;5052790;28;20914;-68
2023/06/23 06:56:58;;;;;;;3.30;2.90;;;26.90;53.60;;;;;;5052950;28;20587;-69
2023/06/23 06:59:25;;;;;;;5.10;3.00;;;26.90;53.70;;;;;;5053005;28;20473;-68
2023/06/23 07:01:52;;;;;;;4.67;3.10;;;26.80;53.60;;;;;;5052711;28;20833;-69
2023/06/23 07:04:19;;;;;;;3.00;2.70;;;26.80;53.60;;;;;;5051852;28;20547;-69
2023/06/23 07:06:52;;;;;;;3.67;3.37;;;26.90;53.70;;;;;;5052796;28;20425;-69
2023/06/23 07:09:17;;;;;;;3.17;2.87;;;26.80;53.60;;;;;;5052885;28;20394;-69
2023/06/23 07:11:43;;;;;;;3.77;3.10;;;26.80;53.60;;;;;;5052776;28;20977;-69
2023/06/23 07:14:08;;;;;;;4.30;2.97;;;26.80;53.70;;;;;;5052527;28;20589;-68
2023/06/23 07:16:34;;;;;;;3.37;3.07;;;26.80;53.70;;;;;;5052336;28;20206;-68
2023/06/23 07:18:59;;;;;;;3.20;2.90;;;26.80;53.70;;;;;;5051247;28;20205;-69
2023/06/23 07:21:25;;;;;;;4.40;2.87;;;26.80;53.70;;;;;;5052384;28;20179;-69
2023/06/23 07:23:51;;;;;;;3.13;2.60;;;26.90;53.80;;;;;;5052607;28;20175;-68
2023/06/23 07:26:16;;;;;;;3.73;3.37;;;26.80;53.70;;;;;;5052294;28;20191;-69
2023/06/23 07:28:42;;;;;;;3.10;2.60;;;26.90;53.80;;;;;;5051085;28;20179;-68
2023/06/23 07:31:07;;;;;;;4.37;3.00;;;26.90;53.70;;;;;;5052287;28;20186;-68
2023/06/23 07:33:33;;;;;;;2.50;2.30;;;26.80;53.60;;;;;;5052181;28;20186;-68
2023/06/23 07:35:58;;;;;;;3.43;2.80;;;26.90;53.70;;;;;;5052080;28;20202;-69
2023/06/23 07:38:24;;;;;;;4.10;3.00;;;26.80;53.70;;;;;;5052141;28;20182;-68
2023/06/23 07:40:50;;;;;;;2.93;2.70;;;26.90;53.70;;;;;;5052126;28;20524;-69
2023/06/23 07:43:15;;;;;;;2.87;2.63;;;26.80;53.60;;;;;;5052056;28;20224;-69
2023/06/23 07:45:41;;;;;;;3.97;3.40;;;26.80;53.60;;;;;;5051912;28;20271;-69
2023/06/23 07:48:07;;;;;;;2.90;2.70;;;26.80;54.10;;;;;;5052289;28;20218;-69
2023/06/23 07:50:32;;;;;;;3.20;2.90;;;26.80;53.50;;;;;;5051807;28;20470;-68
2023/06/23 07:52:58;;;;;;;3.20;2.90;;;26.80;53.50;;;;;;5051988;28;20186;-69
2023/06/23 07:55:24;;;;;;;4.90;3.30;;;26.80;53.40;;;;;;5052106;28;20201;-69
2023/06/23 07:57:49;;;;;;;3.10;2.80;;;26.80;53.40;;;;;;5051829;28;20344;-69
2023/06/23 08:00:16;;;;;;;2.57;2.37;;;26.80;53.50;;;;;;5051813;28;20198;-68
2023/06/23 08:02:42;;;;;;;3.00;2.70;;;26.80;53.50;;;;;;5033947;28;20221;-69
2023/06/23 08:05:08;;;;;;;3.27;2.97;;;26.80;53.50;;;;;;5051813;28;20839;-68
2023/06/23 08:07:34;;;;;;;2.80;2.60;;;26.80;54.10;;;;;;5051866;28;20179;-68
2023/06/23 08:09:59;;;;;;;3.33;3.03;;;26.70;53.60;;;;;;5051760;28;20414;-68
2023/06/23 08:12:25;;;;;;;2.70;2.47;;;26.70;53.50;;;;;;5051805;28;20183;-68
2023/06/23 08:14:50;;;;;;;3.13;2.83;;;26.80;53.60;;;;;;5052897;28;20600;-68
2023/06/23 08:17:16;;;;;;;3.03;2.80;;;26.80;53.60;;;;;;5055855;28;20225;-68
2023/06/23 08:19:43;;;;;;;3.23;2.93;;;26.80;53.60;;;;;;5055817;28;20546;-69
2023/06/23 08:22:09;;;;;;;3.13;2.80;;;26.80;53.60;;;;;;5056369;28;20631;-68
2023/06/23 08:24:35;;;;;;;4.23;2.57;;;26.80;54.10;;;;;;5055728;28;20496;-68
2023/06/23 08:27:00;;;;;;;3.13;2.83;;;26.80;53.50;;;;;;5055777;28;20328;-68
2023/06/23 08:29:26;;;;;;;4.13;3.27;;;26.80;53.60;;;;;;5055603;28;20332;-68
2023/06/23 08:31:52;;;;;;;2.97;2.67;;;26.80;53.50;;;;;;5055556;28;20175;-69
2023/06/23 08:34:18;;;;;;;2.70;2.50;;;26.70;53.50;;;;;;5055457;28;20179;-68
2023/06/23 08:36:44;;;;;;;3.90;3.40;;;26.70;53.50;;;;;;5055363;28;20453;-69
2023/06/23 08:39:10;;;;;;;3.40;3.10;;;26.80;53.50;;;;;;5055403;28;20233;-68
2023/06/23 08:41:39;;;;;;;3.17;2.87;;;26.70;53.50;;;;;;5056107;28;20405;-68
2023/06/23 08:44:06;;;;;;;3.13;2.90;;;26.80;53.60;;;;;;5054721;28;20175;-68
2023/06/23 08:46:35;;;;;;;3.10;2.83;;;26.70;53.50;;;;;;5055994;28;20509;-68
2023/06/23 08:49:06;;;;;;;3.83;2.90;;;26.80;53.60;;;;;;5055977;28;20409;-69
2023/06/23 08:51:33;;;;;;;3.73;3.10;;;26.70;53.60;;;;;;5055155;28;20436;-69
2023/06/23 08:53:59;;;;;;;3.07;2.70;;;26.70;53.60;;;;;;5055500;28;20427;-68
2023/06/23 08:56:25;;;;;;;3.60;3.30;;;26.70;53.60;;;;;;5054948;28;20460;-68
2023/06/23 08:58:51;;;;;;;3.07;2.77;;;26.70;53.60;;;;;;5054169;28;20178;-69
2023/06/23 09:01:17;;;;;;;3.40;2.63;;;26.70;54.10;;;;;;5055030;28;20493;-69
2023/06/23 09:03:43;;;;;;;3.27;2.97;;;26.70;53.60;;;;;;5055193;28;20179;-68
2023/06/23 09:06:09;;;;;;;2.87;2.53;;;26.70;53.60;;;;;;5054154;28;20240;-69
2023/06/23 09:08:35;;;;;;;3.23;2.20;;;26.70;53.50;;;;;;5054959;28;20253;-68
2023/06/23 09:11:00;;;;;;;3.70;3.20;;;26.70;53.50;;;;;;5054881;28;20631;-68
2023/06/23 09:13:29;;;;;;;3.90;3.50;;;26.70;53.50;;;;;;5054861;28;20179;-68
2023/06/23 09:15:55;;;;;;;3.20;2.90;;;26.70;53.50;;;;;;5054676;28;20191;-69
2023/06/23 09:18:21;;;;;;;3.00;2.70;;;26.70;53.60;;;;;;5054989;28;20421;-68
2023/06/23 09:20:49;;;;;;;3.20;2.90;;;26.70;53.50;;;;;;5054662;28;20788;-68
2023/06/23 09:23:20;;;;;;;2.93;2.67;;;26.70;53.50;;;;;;5054686;28;20167;-68
2023/06/23 09:25:51;;;;;;;2.80;2.60;;;26.70;53.50;;;;;;5054101;28;20890;-68
2023/06/23 09:28:29;;;;;;;3.33;3.00;;;26.70;53.40;;;;;;5054297;28;20488;-68
2023/06/23 09:30:57;;;;;;;2.97;2.70;;;26.70;53.40;;;;;;5054359;28;20420;-69
2023/06/23 09:33:24;;;;;;;3.20;2.90;;;26.70;53.40;;;;;;5054344;28;20415;-69
2023/06/23 09:35:53;;;;;;;4.20;3.17;;;26.70;53.40;;;;;;5053181;28;21108;-68
2023/06/23 09:38:24;;;;;;;3.17;2.93;;;26.70;53.40;;;;;;5054584;28;20436;-69
2023/06/23 09:41:19;;;;;;;2.80;2.60;;;26.70;53.40;;;;;;5054282;28;20887;-69
2023/06/23 09:43:52;;;;;;;3.07;2.87;;;26.70;53.30;;;;;;5049534;28;20441;-68
2023/06/23 09:46:20;;;;;;;9.20;3.27;;;26.70;53.30;;;;;;5054029;28;20516;-68
2023/06/23 09:48:49;;;;;;;3.17;2.87;;;26.70;53.30;;;;;;5054136;28;20413;-69
2023/06/23 09:51:18;;;;;;;2.90;2.60;;;26.70;53.30;;;;;;5053944;28;20456;-69
2023/06/23 09:53:44;;;;;;;3.23;2.60;;;26.70;53.30;;;;;;5054105;28;20915;-68
2023/06/23 09:56:17;;;;;;;3.30;2.73;;;26.70;53.30;;;;;;5053916;28;20433;-69
2023/06/23 09:58:44;;;;;;;3.63;2.73;;;26.70;53.20;;;;;;5053954;28;20179;-68
2023/06/23 10:01:11;;;;;;;2.83;2.63;;;26.70;53.20;;;;;;5054008;28;20402;-68
2023/06/23 10:03:51;;;;;;;2.80;2.50;;;26.70;53.20;;;;;;5052685;28;20771;-68
2023/06/23 10:06:23;;;;;;;7.10;2.83;;;26.70;53.10;;;;;;5053805;28;20509;-69
2023/06/23 10:08:53;;;;;;;3.13;2.80;;;26.60;53.10;;;;;;5053873;28;20409;-69
2023/06/23 10:11:19;;;;;;;3.30;2.77;;;26.70;53.10;;;;;;5053719;28;20405;-69
2023/06/23 10:13:47;;;;;;;2.57;2.37;;;26.60;53.00;;;;;;5053656;28;20413;-68
2023/06/23 10:16:13;;;;;;;2.47;2.27;;;26.70;53.00;;;;;;5053295;28;20225;-69
2023/06/23 10:18:40;;;;;;;2.77;2.57;;;26.60;52.90;;;;;;5053639;28;20394;-69
2023/06/23 10:21:06;;;;;;;2.70;2.20;;;26.60;52.90;;;;;;5053507;28;20418;-69
2023/06/23 10:23:33;;;;;;;2.93;2.10;;;26.60;52.80;;;;;;5053538;28;20416;-68
2023/06/23 10:26:00;;;;;;;3.10;2.80;;;26.60;52.80;;;;;;5053497;28;20479;-68
2023/06/23 10:28:28;;;;;;;2.27;2.07;;;26.60;52.90;;;;;;5053554;28;20443;-69
2023/06/23 10:30:54;;;;;;;2.93;2.10;;;26.60;52.90;;;;;;5052657;28;20402;-69
2023/06/23 10:33:21;;;;;;;2.60;2.40;;;26.60;52.80;;;;;;5052771;28;20442;-69
2023/06/23 10:35:48;;;;;;;3.40;2.57;;;26.60;52.80;;;;;;5053293;28;21019;-68
2023/06/23 10:38:20;;;;;;;3.23;2.90;;;26.60;52.90;;;;;;5053097;28;20488;-69
2023/06/23 10:40:49;;;;;;;4.60;2.97;;;26.60;52.90;;;;;;5053272;28;20476;-69
2023/06/23 10:43:18;;;;;;;3.20;2.90;;;26.60;52.90;;;;;;5053106;28;20504;-69
2023/06/23 10:45:44;;;;;;;3.20;2.60;;;26.60;52.90;;;;;;5053433;28;20441;-69
2023/06/23 10:48:11;;;;;;;3.40;3.00;;;26.60;52.80;;;;;;5053034;28;20461;-68
2023/06/23 10:50:39;;;;;;;2.80;2.53;;;26.60;52.70;;;;;;5051581;28;20838;-67
2023/06/23 10:53:16;;;;;;;4.40;3.30;;;26.60;52.70;;;;;;5052886;28;20988;-68
2023/06/23 10:55:44;;;;;;;4.80;2.93;;;26.60;52.70;;;;;;5052496;28;20544;-68
2023/06/23 10:58:12;;;;;;;4.20;2.57;;;26.60;52.70;;;;;;5044455;28;20457;-68
2023/06/23 11:00:38;;;;;;;2.87;2.57;;;26.60;52.80;;;;;;5043338;28;20414;-68
2023/06/23 11:03:10;;;;;;;3.13;2.63;;;26.60;52.80;;;;;;5045211;28;20403;-68
2023/06/23 11:05:56;;;;;;;7.63;2.93;;;26.60;52.90;;;;;;5041998;28;20191;-68
2023/06/23 11:08:39;;;;;;;5.40;2.90;;;26.60;52.90;;;;;;5040526;28;20402;-68
2023/06/23 11:11:07;;;;;;;3.83;2.90;;;26.60;53.00;;;;;;5041184;28;20413;-68
2023/06/23 11:13:46;;;;;;;3.57;2.43;;;26.60;53.10;;;;;;5043267;28;20409;-68
2023/06/23 11:16:34;;;;;;;2.53;2.23;;;26.60;53.10;;;;;;5040289;28;20433;-68
2023/06/23 11:19:03;;;;;;;3.17;2.60;;;26.60;53.10;;;;;;5042998;28;20394;-68
2023/06/23 11:21:34;;;;;;;3.30;2.90;;;26.60;53.20;;;;;;5045211;28;20795;-68
2023/06/23 11:24:07;;;;;;;3.20;2.60;;;26.60;53.20;;;;;;5054187;28;20415;-68
2023/06/23 11:26:32;;;;;;;2.83;2.33;;;26.60;53.20;;;;;;5052299;28;20437;-68
2023/06/23 11:29:00;;;;;;;3.67;3.10;;;26.60;53.20;;;;;;5050986;28;20429;-68
2023/06/23 11:31:27;;;;;;;2.80;2.53;;;26.60;53.30;;;;;;5052360;28;20209;-68
2023/06/23 11:34:02;;;;;;;2.50;2.23;;;26.60;53.30;;;;;;5052287;28;20933;-68
2023/06/23 11:36:29;;;;;;;3.40;2.40;;;26.60;53.40;;;;;;5052149;28;20452;-68
2023/06/23 11:38:56;;;;;;;3.73;2.60;;;26.60;53.40;;;;;;5052255;28;20890;-68
2023/06/23 11:41:29;;;;;;;2.77;2.20;;;26.60;53.40;;;;;;5052179;28;20440;-69
2023/06/23 11:44:00;;;;;;;3.00;2.10;;;26.60;53.40;;;;;;5052124;28;20475;-68
2023/06/23 11:46:26;;;;;;;2.90;2.43;;;26.70;53.40;;;;;;5050631;28;20491;-68
2023/06/23 11:48:53;;;;;;;2.07;1.93;;;26.60;53.40;;;;;;5051817;28;20413;-68
2023/06/23 11:51:21;;;;;;;2.40;2.20;;;26.70;53.40;;;;;;5051695;28;20490;-69
2023/06/23 11:53:49;;;;;;;2.10;1.90;;;26.70;53.40;;;;;;5052137;28;20954;-68
2023/06/23 11:56:16;;;;;;;2.50;2.20;;;26.60;53.40;;;;;;5051699;28;20432;-68
2023/06/23 11:58:51;;;;;;;3.23;2.13;;;26.60;53.40;;;;;;5051866;28;20517;-68
2023/06/23 12:01:18;;;;;;;2.50;2.17;;;26.60;53.30;;;;;;5051908;28;20490;-68
2023/06/23 12:03:51;;;;;;;2.53;2.33;;;26.60;53.30;;;;;;5051740;28;20420;-68
2023/06/23 12:06:18;;;;;;;2.10;1.90;;;26.70;53.40;;;;;;5050337;28;20464;-69
2023/06/23 12:08:45;;;;;;;1.87;1.60;;;26.60;53.30;;;;;;5052074;28;20487;-68
2023/06/23 12:11:10;;;;;;;2.43;1.90;;;26.60;53.30;;;;;;5050387;28;20414;-68
2023/06/23 12:13:37;;;;;;;2.83;2.20;;;26.60;53.30;;;;;;5051635;28;20408;-68
2023/06/23 12:16:04;;;;;;;2.30;1.90;;;26.60;53.30;;;;;;5051507;28;20195;-68
2023/06/23 12:18:30;;;;;;;3.80;1.93;;;26.60;53.30;;;;;;5051608;28;20447;-68
2023/06/23 12:20:59;;;;;;;2.40;2.10;;;26.60;53.30;;;;;;5051909;28;20420;-69
2023/06/23 12:23:25;;;;;;;2.30;2.00;;;26.60;53.30;;;;;;5051890;28;20190;-69
2023/06/23 12:25:53;;;;;;;2.10;1.90;;;26.60;53.30;;;;;;5051429;28;21005;-68
2023/06/23 12:28:19;;;;;;;2.10;1.83;;;26.60;53.30;;;;;;5051791;28;20183;-67
2023/06/23 12:30:48;;;;;;;1.80;1.70;;;26.60;53.30;;;;;;5051535;28;20420;-69
2023/06/23 12:33:24;;;;;;;2.00;1.80;;;26.60;53.20;;;;;;5051766;28;20918;-68
2023/06/23 12:36:08;;;;;;;2.13;1.77;;;26.60;53.20;;;;;;5051494;28;20440;-68
2023/06/23 12:38:38;;;;;;;2.37;1.83;;;26.60;53.20;;;;;;5051529;28;20834;-68
2023/06/23 12:41:13;;;;;;;1.93;1.80;;;26.60;53.20;;;;;;5051516;28;20398;-68
2023/06/23 12:43:39;;;;;;;2.30;1.90;;;26.60;53.20;;;;;;5051456;28;20408;-68
2023/06/23 12:46:05;;;;;;;2.03;1.70;;;26.60;53.10;;;;;;5051327;28;20876;-69
2023/06/23 12:48:30;;;;;;;1.93;1.73;;;26.60;53.10;;;;;;5051380;28;20221;-69
2023/06/23 12:50:58;;;;;;;1.90;1.70;;;26.60;53.20;;;;;;5051322;28;20190;-69
2023/06/23 12:53:23;;;;;;;3.30;2.13;;;26.60;53.10;;;;;;5051428;28;20174;-69